createdAt,value
2016-06-13T00:00:28.465Z,0
2016-06-13T00:01:28.282Z,0
2016-06-13T00:02:28.160Z,0
2016-06-13T00:03:28.255Z,0
2016-06-13T00:04:28.243Z,0
2016-06-13T00:05:28.153Z,0
2016-06-13T00:06:28.594Z,0
2016-06-13T00:07:28.143Z,0
2016-06-13T00:08:28.145Z,0
2016-06-13T00:09:28.243Z,0
2016-06-13T00:10:27.934Z,0
2016-06-13T00:11:28.077Z,0
2016-06-13T00:12:28.393Z,0
2016-06-13T00:13:28.116Z,0
2016-06-13T00:14:28.086Z,0
2016-06-13T00:15:28.089Z,0
2016-06-13T00:16:27.967Z,0
2016-06-13T00:17:27.940Z,0
2016-06-13T00:18:28.318Z,0
2016-06-13T00:19:27.914Z,0
2016-06-13T00:20:28.262Z,0
2016-06-13T00:21:27.858Z,0
2016-06-13T00:22:27.814Z,0
2016-06-13T00:23:27.786Z,0
2016-06-13T00:24:28.196Z,0
2016-06-13T00:25:28.292Z,0
2016-06-13T00:26:27.811Z,0
2016-06-13T00:27:27.845Z,0
2016-06-13T00:28:27.739Z,0
2016-06-13T00:29:27.665Z,0
2016-06-13T00:30:27.995Z,0
2016-06-13T00:31:27.638Z,0
2016-06-13T00:32:27.595Z,0
2016-06-13T00:33:27.598Z,0
2016-06-13T00:34:27.586Z,0
2016-06-13T00:35:27.589Z,0
2016-06-13T00:36:27.982Z,0
2016-06-13T00:37:27.517Z,0
2016-06-13T00:38:27.504Z,0
2016-06-13T00:39:27.491Z,0
2016-06-13T00:40:27.620Z,0
2016-06-13T00:41:27.576Z,0
2016-06-13T00:42:27.766Z,0
2016-06-13T00:43:27.614Z,0
2016-06-13T00:44:27.492Z,0
2016-06-13T00:45:27.338Z,0
2016-06-13T00:46:27.310Z,0
2016-06-13T00:47:27.406Z,0
2016-06-13T00:48:27.644Z,0
2016-06-13T00:49:27.241Z,0
2016-06-13T00:50:27.244Z,0
2016-06-13T00:51:27.232Z,0
2016-06-13T00:52:27.188Z,0
2016-06-13T00:53:27.191Z,0
2016-06-13T00:54:27.507Z,0
2016-06-13T00:55:27.197Z,0
2016-06-13T00:56:27.779Z,0
2016-06-13T00:57:27.141Z,0
2016-06-13T00:58:27.066Z,0
2016-06-13T00:59:27.085Z,0
2016-06-13T01:00:27.400Z,0
2016-06-13T01:01:27.028Z,0
2016-06-13T01:02:27.016Z,0
2016-06-13T01:03:27.019Z,0
2016-06-13T01:04:26.990Z,0
2016-06-13T01:05:26.916Z,0
2016-06-13T01:06:27.293Z,0
2016-06-13T01:07:27.031Z,0
2016-06-13T01:08:26.910Z,0
2016-06-13T01:09:26.880Z,0
2016-06-13T01:10:26.915Z,0
2016-06-13T01:11:27.886Z,0
2016-06-13T01:12:27.047Z,0
2016-06-13T01:13:26.862Z,0
2016-06-13T01:14:27.005Z,0
2016-06-13T01:15:27.024Z,0
2016-06-13T01:16:26.762Z,0
2016-06-13T01:17:26.749Z,0
2016-06-13T01:18:27.018Z,0
2016-06-13T01:19:26.755Z,0
2016-06-13T01:20:26.649Z,0
2016-06-13T01:21:26.620Z,0
2016-06-13T01:22:26.578Z,0
2016-06-13T01:23:26.549Z,0
2016-06-13T01:24:26.879Z,0
2016-06-13T01:25:26.586Z,0
2016-06-13T01:26:26.698Z,0
2016-06-13T01:27:26.483Z,0
2016-06-13T01:28:26.471Z,0
2016-06-13T01:29:26.442Z,0
2016-06-13T01:30:26.789Z,0
2016-06-13T01:31:26.401Z,0
2016-06-13T01:32:26.483Z,0
2016-06-13T01:33:26.361Z,0
2016-06-13T01:34:26.349Z,0
2016-06-13T01:35:26.320Z,0
2016-06-13T01:36:26.635Z,0
2016-06-13T01:37:26.280Z,0
2016-06-13T01:38:26.236Z,0
2016-06-13T01:39:26.239Z,0
2016-06-13T01:40:26.194Z,0
2016-06-13T01:41:26.479Z,0
2016-06-13T01:42:26.545Z,0
2016-06-13T01:43:26.079Z,0
2016-06-13T01:44:26.129Z,0
2016-06-13T01:45:26.102Z,0
2016-06-13T01:46:26.088Z,0
2016-06-13T01:47:26.263Z,0
2016-06-13T01:48:26.391Z,0
2016-06-13T01:49:26.019Z,0
2016-06-13T01:50:26.039Z,0
2016-06-13T01:51:25.978Z,0
2016-06-13T01:52:26.028Z,0
2016-06-13T01:53:25.968Z,0
2016-06-13T01:54:26.301Z,0
2016-06-13T01:55:25.943Z,0
2016-06-13T01:56:26.900Z,0
2016-06-13T01:57:25.888Z,0
2016-06-13T01:58:25.844Z,0
2016-06-13T01:59:25.816Z,0
2016-06-13T02:00:26.319Z,0
2016-06-13T02:01:25.807Z,0
2016-06-13T02:02:27.153Z,0
2016-06-13T02:03:25.734Z,0
2016-06-13T02:04:25.753Z,0
2016-06-13T02:05:25.677Z,0
2016-06-13T02:06:26.072Z,0
2016-06-13T02:07:25.669Z,0
2016-06-13T02:08:25.639Z,0
2016-06-13T02:09:25.643Z,0
2016-06-13T02:10:25.662Z,0
2016-06-13T02:11:25.978Z,0
2016-06-13T02:12:25.918Z,0
2016-06-13T02:13:25.390Z,0
2016-06-13T02:14:25.518Z,0
2016-06-13T02:15:25.444Z,0
2016-06-13T02:16:25.477Z,0
2016-06-13T02:17:25.433Z,0
2016-06-13T02:18:26.045Z,0
2016-06-13T02:19:25.409Z,0
2016-06-13T02:20:25.396Z,0
2016-06-13T02:21:25.368Z,0
2016-06-13T02:22:25.371Z,0
2016-06-13T02:23:25.249Z,0
2016-06-13T02:24:25.627Z,0
2016-06-13T02:25:25.286Z,0
2016-06-13T02:26:25.258Z,0
2016-06-13T02:27:25.230Z,0
2016-06-13T02:28:25.217Z,0
2016-06-13T02:29:25.190Z,0
2016-06-13T02:30:25.551Z,0
2016-06-13T02:31:25.149Z,0
2016-06-13T02:32:25.230Z,0
2016-06-13T02:33:25.139Z,0
2016-06-13T02:34:25.188Z,0
2016-06-13T02:35:25.098Z,0
2016-06-13T02:36:25.492Z,0
2016-06-13T02:37:25.042Z,0
2016-06-13T02:38:25.014Z,0
2016-06-13T02:39:24.985Z,0
2016-06-13T02:40:24.957Z,0
2016-06-13T02:41:25.538Z,0
2016-06-13T02:42:25.276Z,0
2016-06-13T02:43:24.967Z,0
2016-06-13T02:44:24.892Z,0
2016-06-13T02:45:24.988Z,0
2016-06-13T02:46:24.867Z,0
2016-06-13T02:47:24.839Z,0
2016-06-13T02:48:25.138Z,0
2016-06-13T02:49:24.797Z,0
2016-06-13T02:50:25.097Z,0
2016-06-13T02:51:24.804Z,0
2016-06-13T02:52:24.713Z,0
2016-06-13T02:53:24.685Z,0
2016-06-13T02:54:25.078Z,0
2016-06-13T02:55:24.676Z,0
2016-06-13T02:56:24.506Z,4
2016-06-13T02:57:24.462Z,0
2016-06-13T02:58:24.607Z,0
2016-06-13T02:59:24.579Z,0
2016-06-13T03:00:24.941Z,0
2016-06-13T03:01:24.506Z,0
2016-06-13T03:02:24.572Z,4
2016-06-13T03:03:24.497Z,0
2016-06-13T03:04:24.469Z,0
2016-06-13T03:05:24.440Z,0
2016-06-13T03:06:24.772Z,4
2016-06-13T03:07:24.525Z,4
2016-06-13T03:08:24.435Z,4
2016-06-13T03:09:24.390Z,4
2016-06-13T03:10:24.330Z,8
2016-06-13T03:11:24.459Z,8
2016-06-13T03:12:24.712Z,8
2016-06-13T03:13:24.293Z,8
2016-06-13T03:14:24.328Z,12
2016-06-13T03:15:24.565Z,8
2016-06-13T03:16:24.239Z,12
2016-06-13T03:17:24.306Z,16
2016-06-13T03:18:24.574Z,20
2016-06-13T03:19:24.187Z,20
2016-06-13T03:20:24.143Z,24
2016-06-13T03:21:24.115Z,20
2016-06-13T03:22:24.117Z,24
2016-06-13T03:23:24.074Z,24
2016-06-13T03:24:24.405Z,32
2016-06-13T03:25:24.049Z,40
2016-06-13T03:26:24.614Z,44
2016-06-13T03:27:24.467Z,44
2016-06-13T03:28:24.011Z,48
2016-06-13T03:29:24.070Z,56
2016-06-13T03:30:24.426Z,64
2016-06-13T03:31:24.078Z,64
2016-06-13T03:32:24.124Z,64
2016-06-13T03:33:24.109Z,68
2016-06-13T03:34:24.080Z,68
2016-06-13T03:35:24.128Z,64
2016-06-13T03:36:24.412Z,64
2016-06-13T03:37:24.049Z,68
2016-06-13T03:38:24.057Z,72
2016-06-13T03:39:24.081Z,76
2016-06-13T03:40:24.058Z,76
2016-06-13T03:41:24.895Z,80
2016-06-13T03:42:24.761Z,80
2016-06-13T03:43:23.953Z,84
2016-06-13T03:44:23.974Z,88
2016-06-13T03:45:23.979Z,88
2016-06-13T03:46:23.937Z,88
2016-06-13T03:47:23.864Z,84
2016-06-13T03:48:24.243Z,80
2016-06-13T03:49:23.871Z,68
2016-06-13T03:50:23.953Z,60
2016-06-13T03:51:23.801Z,60
2016-06-13T03:52:23.867Z,60
2016-06-13T03:53:23.791Z,64
2016-06-13T03:54:24.248Z,64
2016-06-13T03:55:24.156Z,68
2016-06-13T03:56:24.082Z,68
2016-06-13T03:57:24.101Z,76
2016-06-13T03:58:23.666Z,80
2016-06-13T03:59:23.638Z,92
2016-06-13T04:00:24.141Z,100
2016-06-13T04:01:23.816Z,112
2016-06-13T04:02:23.538Z,120
2016-06-13T04:03:23.636Z,128
2016-06-13T04:04:23.591Z,136
2016-06-13T04:05:23.563Z,148
2016-06-13T04:06:23.894Z,156
2016-06-13T04:07:23.554Z,164
2016-06-13T04:08:23.541Z,176
2016-06-13T04:09:23.481Z,184
2016-06-13T04:10:23.610Z,164
2016-06-13T04:11:23.581Z,144
2016-06-13T04:12:23.803Z,144
2016-06-13T04:13:23.416Z,148
2016-06-13T04:14:23.434Z,156
2016-06-13T04:15:23.375Z,156
2016-06-13T04:16:23.285Z,156
2016-06-13T04:17:23.271Z,152
2016-06-13T04:18:23.618Z,152
2016-06-13T04:19:23.341Z,152
2016-06-13T04:20:23.281Z,148
2016-06-13T04:21:23.190Z,140
2016-06-13T04:22:23.068Z,124
2016-06-13T04:23:23.164Z,108
2016-06-13T04:24:23.575Z,92
2016-06-13T04:25:23.109Z,72
2016-06-13T04:26:23.861Z,64
2016-06-13T04:27:23.287Z,60
2016-06-13T04:28:23.133Z,64
2016-06-13T04:29:23.105Z,72
2016-06-13T04:30:23.358Z,68
2016-06-13T04:31:22.987Z,84
2016-06-13T04:32:22.974Z,104
2016-06-13T04:33:25.961Z,104
2016-06-13T04:34:23.026Z,116
2016-06-13T04:35:22.904Z,124
2016-06-13T04:36:23.362Z,120
2016-06-13T04:37:22.864Z,128
2016-06-13T04:38:22.852Z,140
2016-06-13T04:39:22.855Z,144
2016-06-13T04:40:23.014Z,128
2016-06-13T04:41:22.798Z,100
2016-06-13T04:42:23.426Z,88
2016-06-13T04:43:22.726Z,84
2016-06-13T04:44:22.715Z,80
2016-06-13T04:45:22.701Z,92
2016-06-13T04:46:22.579Z,112
2016-06-13T04:47:22.630Z,148
2016-06-13T04:48:22.976Z,156
2016-06-13T04:49:22.619Z,172
2016-06-13T04:50:22.700Z,188
2016-06-13T04:51:22.673Z,208
2016-06-13T04:52:22.551Z,216
2016-06-13T04:53:22.679Z,200
2016-06-13T04:54:22.854Z,180
2016-06-13T04:55:22.623Z,164
2016-06-13T04:56:22.579Z,148
2016-06-13T04:57:22.895Z,144
2016-06-13T04:58:22.555Z,148
2016-06-13T04:59:22.588Z,152
2016-06-13T05:00:22.747Z,148
2016-06-13T05:01:22.392Z,148
2016-06-13T05:02:22.348Z,156
2016-06-13T05:03:22.335Z,164
2016-06-13T05:04:22.291Z,172
2016-06-13T05:05:22.262Z,168
2016-06-13T05:06:22.594Z,164
2016-06-13T05:07:22.238Z,148
2016-06-13T05:08:22.210Z,140
2016-06-13T05:09:22.197Z,136
2016-06-13T05:10:22.184Z,140
2016-06-13T05:11:22.156Z,148
2016-06-13T05:12:22.706Z,144
2016-06-13T05:13:22.131Z,156
2016-06-13T05:14:22.088Z,216
2016-06-13T05:15:22.060Z,304
2016-06-13T05:16:22.093Z,352
2016-06-13T05:17:22.019Z,336
2016-06-13T05:18:22.350Z,304
2016-06-13T05:19:21.978Z,284
2016-06-13T05:20:21.981Z,256
2016-06-13T05:21:21.968Z,232
2016-06-13T05:22:21.831Z,244
2016-06-13T05:23:21.927Z,284
2016-06-13T05:24:21.946Z,304
2016-06-13T05:25:22.183Z,328
2016-06-13T05:26:21.844Z,332
2016-06-13T05:27:22.175Z,308
2016-06-13T05:28:21.786Z,256
2016-06-13T05:29:21.789Z,228
2016-06-13T05:30:22.106Z,276
2016-06-13T05:31:22.015Z,344
2016-06-13T05:32:21.799Z,312
2016-06-13T05:33:21.693Z,268
2016-06-13T05:34:21.836Z,236
2016-06-13T05:35:21.730Z,188
2016-06-13T05:36:22.030Z,160
2016-06-13T05:37:21.783Z,136
2016-06-13T05:38:21.677Z,144
2016-06-13T05:39:21.586Z,136
2016-06-13T05:40:21.558Z,132
2016-06-13T05:41:35.342Z,124
2016-06-13T05:42:35.674Z,120
2016-06-13T05:43:35.318Z,112
2016-06-13T05:44:35.305Z,100
2016-06-13T05:45:35.261Z,96
2016-06-13T05:46:35.280Z,96
2016-06-13T05:47:21.642Z,100
2016-06-13T05:48:24.754Z,100
2016-06-13T05:49:24.382Z,100
2016-06-13T05:50:24.432Z,100
2016-06-13T05:51:21.763Z,100
2016-06-13T05:52:21.470Z,100
2016-06-13T05:53:21.379Z,104
2016-06-13T05:54:21.977Z,108
2016-06-13T05:55:21.589Z,116
2016-06-13T05:56:21.232Z,124
2016-06-13T05:57:21.423Z,132
2016-06-13T05:58:21.379Z,148
2016-06-13T05:59:21.382Z,164
2016-06-13T06:00:21.682Z,164
2016-06-13T06:01:21.122Z,160
2016-06-13T06:02:21.219Z,152
2016-06-13T06:03:21.129Z,164
2016-06-13T06:04:21.053Z,180
2016-06-13T06:05:21.025Z,200
2016-06-13T06:06:21.389Z,220
2016-06-13T06:07:20.984Z,248
2016-06-13T06:08:20.956Z,268
2016-06-13T06:09:20.975Z,284
2016-06-13T06:10:20.947Z,288
2016-06-13T06:11:20.950Z,276
2016-06-13T06:12:21.687Z,280
2016-06-13T06:13:20.878Z,280
2016-06-13T06:14:20.991Z,268
2016-06-13T06:15:20.869Z,252
2016-06-13T06:16:20.809Z,224
2016-06-13T06:17:21.109Z,180
2016-06-13T06:18:21.596Z,140
2016-06-13T06:19:21.037Z,112
2016-06-13T06:20:20.727Z,96
2016-06-13T06:21:20.730Z,88
2016-06-13T06:22:20.687Z,84
2016-06-13T06:23:20.722Z,76
2016-06-13T06:24:20.647Z,72
2016-06-13T06:25:21.274Z,56
2016-06-13T06:26:21.137Z,76
2016-06-13T06:27:22.468Z,116
2016-06-13T06:28:20.627Z,120
2016-06-13T06:29:20.630Z,116
2016-06-13T06:30:21.102Z,120
2016-06-13T06:31:20.683Z,104
2016-06-13T06:32:20.749Z,100
2016-06-13T06:33:20.892Z,96
2016-06-13T06:34:20.615Z,108
2016-06-13T06:35:20.587Z,124
2016-06-13T06:36:21.043Z,144
2016-06-13T06:37:20.545Z,184
2016-06-13T06:38:20.657Z,188
2016-06-13T06:39:20.474Z,176
2016-06-13T06:40:20.555Z,176
2016-06-13T06:41:20.417Z,176
2016-06-13T06:42:21.530Z,164
2016-06-13T06:43:20.486Z,172
2016-06-13T06:44:20.411Z,188
2016-06-13T06:45:20.258Z,204
2016-06-13T06:46:19.729Z,228
2016-06-13T06:47:20.311Z,268
2016-06-13T06:48:20.642Z,296
2016-06-13T06:49:20.255Z,352
2016-06-13T06:50:20.304Z,412
2016-06-13T06:51:20.214Z,444
2016-06-13T06:52:20.201Z,472
2016-06-13T06:53:20.236Z,484
2016-06-13T06:54:20.364Z,512
2016-06-13T06:55:19.991Z,492
2016-06-13T06:56:19.979Z,496
2016-06-13T06:57:20.716Z,476
2016-06-13T06:58:20.001Z,464
2016-06-13T06:59:19.926Z,504
2016-06-13T07:00:20.257Z,556
2016-06-13T07:01:20.167Z,608
2016-06-13T07:02:19.856Z,680
2016-06-13T07:03:19.828Z,748
2016-06-13T07:04:19.801Z,820
2016-06-13T07:05:19.820Z,888
2016-06-13T07:06:20.119Z,932
2016-06-13T07:07:19.794Z,916
2016-06-13T07:08:19.719Z,848
2016-06-13T07:09:19.707Z,784
2016-06-13T07:10:19.694Z,748
2016-06-13T07:11:19.713Z,724
2016-06-13T07:12:20.325Z,704
2016-06-13T07:13:19.625Z,696
2016-06-13T07:14:19.598Z,660
2016-06-13T07:15:19.600Z,644
2016-06-13T07:16:19.619Z,648
2016-06-13T07:17:19.575Z,660
2016-06-13T07:18:19.922Z,736
2016-06-13T07:19:19.550Z,824
2016-06-13T07:20:19.505Z,888
2016-06-13T07:21:19.619Z,848
2016-06-13T07:22:19.653Z,832
2016-06-13T07:23:19.578Z,872
2016-06-13T07:24:19.909Z,908
2016-06-13T07:25:19.413Z,952
2016-06-13T07:26:19.618Z,980
2016-06-13T07:27:20.996Z,1008
2016-06-13T07:28:20.125Z,1020
2016-06-13T07:29:19.472Z,1060
2016-06-13T07:30:19.771Z,1092
2016-06-13T07:31:19.570Z,1156
2016-06-13T07:32:19.245Z,1256
2016-06-13T07:33:19.234Z,1356
2016-06-13T07:34:19.204Z,1384
2016-06-13T07:35:19.193Z,1380
2016-06-13T07:36:20.180Z,1352
2016-06-13T07:37:19.183Z,1372
2016-06-13T07:38:19.639Z,1252
2016-06-13T07:39:19.111Z,1060
2016-06-13T07:40:19.083Z,864
2016-06-13T07:41:19.071Z,756
2016-06-13T07:42:19.479Z,652
2016-06-13T07:43:19.249Z,596
2016-06-13T07:44:20.752Z,524
2016-06-13T07:45:19.067Z,480
2016-06-13T07:46:18.945Z,420
2016-06-13T07:47:18.980Z,376
2016-06-13T07:48:19.280Z,364
2016-06-13T07:49:18.908Z,356
2016-06-13T07:50:18.879Z,384
2016-06-13T07:51:18.898Z,408
2016-06-13T07:52:18.885Z,412
2016-06-13T07:53:18.983Z,412
2016-06-13T07:54:19.204Z,404
2016-06-13T07:55:18.848Z,440
2016-06-13T07:56:18.789Z,432
2016-06-13T07:57:20.183Z,412
2016-06-13T07:58:24.466Z,452
2016-06-13T07:59:33.079Z,440
2016-06-13T08:00:19.192Z,400
2016-06-13T08:01:19.179Z,396
2016-06-13T08:02:18.838Z,396
2016-06-13T08:03:18.779Z,380
2016-06-13T08:04:18.985Z,364
2016-06-13T08:05:18.800Z,344
2016-06-13T08:06:19.069Z,296
2016-06-13T08:07:32.431Z,292
2016-06-13T08:08:32.309Z,292
2016-06-13T08:09:18.782Z,276
2016-06-13T08:10:32.284Z,360
2016-06-13T08:11:32.256Z,388
2016-06-13T08:12:18.822Z,384
2016-06-13T08:13:32.216Z,580
2016-06-13T08:14:32.218Z,1056
2016-06-13T08:15:18.566Z,1052
2016-06-13T08:16:21.333Z,692
2016-06-13T08:17:21.322Z,676
2016-06-13T08:18:21.794Z,544
2016-06-13T08:19:21.328Z,496
2016-06-13T08:20:32.346Z,432
2016-06-13T08:21:21.257Z,416
2016-06-13T08:22:18.368Z,324
2016-06-13T08:23:32.231Z,292
2016-06-13T08:24:18.671Z,312
2016-06-13T08:25:18.377Z,320
2016-06-13T08:26:18.490Z,364
2016-06-13T08:27:21.150Z,360
2016-06-13T08:28:18.542Z,416
2016-06-13T08:29:18.328Z,636
2016-06-13T08:30:19.034Z,1212
2016-06-13T08:31:18.037Z,1548
2016-06-13T08:32:17.993Z,1460
2016-06-13T08:33:18.090Z,1432
2016-06-13T08:34:17.952Z,1500
2016-06-13T08:35:18.064Z,1452
2016-06-13T08:36:18.334Z,1400
2016-06-13T08:37:17.978Z,1484
2016-06-13T08:38:17.887Z,1616
2016-06-13T08:39:17.920Z,1612
2016-06-13T08:40:18.049Z,1632
2016-06-13T08:41:17.927Z,1476
2016-06-13T08:42:18.195Z,1480
2016-06-13T08:43:17.652Z,1456
2016-06-13T08:44:17.842Z,1436
2016-06-13T08:45:17.720Z,1480
2016-06-13T08:46:17.739Z,1440
2016-06-13T08:47:18.273Z,1344
2016-06-13T08:48:18.089Z,1312
2016-06-13T08:49:17.655Z,1224
2016-06-13T08:50:18.204Z,1080
2016-06-13T08:51:17.723Z,1044
2016-06-13T08:52:18.180Z,908
2016-06-13T08:53:17.808Z,776
2016-06-13T08:54:18.107Z,684
2016-06-13T08:55:17.689Z,680
2016-06-13T08:56:17.707Z,592
2016-06-13T08:57:17.554Z,536
2016-06-13T08:58:18.338Z,580
2016-06-13T08:59:17.654Z,588
2016-06-13T09:00:18.532Z,568
2016-06-13T09:01:17.989Z,592
2016-06-13T09:02:18.116Z,676
2016-06-13T09:03:17.369Z,716
2016-06-13T09:04:17.841Z,708
2016-06-13T09:05:17.626Z,856
2016-06-13T09:06:17.644Z,864
2016-06-13T09:07:17.585Z,764
2016-06-13T09:08:17.463Z,648
2016-06-13T09:09:17.435Z,620
2016-06-13T09:10:17.407Z,644
2016-06-13T09:11:17.549Z,716
2016-06-13T09:12:17.569Z,796
2016-06-13T09:13:18.150Z,692
2016-06-13T09:14:17.591Z,628
2016-06-13T09:15:17.359Z,628
2016-06-13T09:16:17.723Z,660
2016-06-13T09:17:17.443Z,628
2016-06-13T09:18:17.368Z,588
2016-06-13T09:19:17.169Z,540
2016-06-13T09:20:17.281Z,496
2016-06-13T09:21:17.096Z,480
2016-06-13T09:22:17.178Z,476
2016-06-13T09:23:17.244Z,504
2016-06-13T09:24:17.667Z,544
2016-06-13T09:25:16.921Z,588
2016-06-13T09:26:17.253Z,632
2016-06-13T09:27:16.787Z,668
2016-06-13T09:28:16.899Z,736
2016-06-13T09:29:16.903Z,800
2016-06-13T09:30:17.202Z,860
2016-06-13T09:31:16.799Z,900
2016-06-13T09:32:16.772Z,916
2016-06-13T09:33:16.743Z,892
2016-06-13T09:34:16.746Z,888
2016-06-13T09:35:16.718Z,872
2016-06-13T09:36:17.158Z,880
2016-06-13T09:37:16.708Z,916
2016-06-13T09:38:16.680Z,972
2016-06-13T09:39:16.636Z,1080
2016-06-13T09:40:16.608Z,1208
2016-06-13T09:41:16.720Z,1396
2016-06-13T09:42:16.927Z,1548
2016-06-13T09:43:17.274Z,1584
2016-06-13T09:44:16.559Z,1548
2016-06-13T09:45:16.514Z,1516
2016-06-13T09:46:16.595Z,1580
2016-06-13T09:47:16.489Z,1704
2016-06-13T09:48:16.836Z,1776
2016-06-13T09:49:16.479Z,1816
2016-06-13T09:50:16.436Z,1856
2016-06-13T09:51:16.564Z,1832
2016-06-13T09:52:16.442Z,1828
2016-06-13T09:53:16.476Z,1872
2016-06-13T09:54:16.807Z,1996
2016-06-13T09:55:16.421Z,2124
2016-06-13T09:56:16.782Z,2248
2016-06-13T09:57:16.551Z,2260
2016-06-13T09:58:16.414Z,2320
2016-06-13T09:59:16.463Z,2536
2016-06-13T10:00:17.497Z,2740
2016-06-13T10:01:16.985Z,2952
2016-06-13T10:02:30.035Z,2960
2016-06-13T10:03:20.163Z,3032
2016-06-13T10:04:16.415Z,3160
2016-06-13T10:05:17.169Z,3084
2016-06-13T10:06:30.313Z,2844
2016-06-13T10:07:16.441Z,2468
2016-06-13T10:08:15.928Z,2212
2016-06-13T10:09:16.120Z,2484
2016-06-13T10:10:16.106Z,2840
2016-06-13T10:11:15.953Z,3000
2016-06-13T10:12:16.473Z,3088
2016-06-13T10:13:16.460Z,3040
2016-06-13T10:14:16.087Z,2836
2016-06-13T10:15:16.371Z,2776
2016-06-13T10:16:15.953Z,2648
2016-06-13T10:17:17.206Z,2504
2016-06-13T10:18:16.256Z,2420
2016-06-13T10:19:29.649Z,2316
2016-06-13T10:20:16.356Z,2420
2016-06-13T10:21:16.125Z,2620
2016-06-13T10:22:16.143Z,2672
2016-06-13T10:23:16.006Z,2636
2016-06-13T10:24:16.432Z,2324
2016-06-13T10:25:16.121Z,1960
2016-06-13T10:26:16.437Z,1580
2016-06-13T10:27:19.236Z,1284
2016-06-13T10:28:19.709Z,1160
2016-06-13T10:29:16.978Z,1060
2016-06-13T10:30:17.277Z,1068
2016-06-13T10:31:29.562Z,1208
2016-06-13T10:32:17.112Z,1288
2016-06-13T10:33:18.584Z,1364
2016-06-13T10:34:16.415Z,1444
2016-06-13T10:35:18.387Z,1476
2016-06-13T10:36:16.233Z,1480
2016-06-13T10:37:15.986Z,1516
2016-06-13T10:38:15.802Z,1628
2016-06-13T10:39:29.273Z,1932
2016-06-13T10:40:29.261Z,2052
2016-06-13T10:41:29.234Z,2456
2016-06-13T10:42:29.190Z,3012
2016-06-13T10:43:16.068Z,3208
2016-06-13T10:44:21.492Z,3504
2016-06-13T10:45:29.246Z,3740
2016-06-13T10:46:29.108Z,3816
2016-06-13T10:47:15.423Z,3664
2016-06-13T10:48:16.005Z,3528
2016-06-13T10:49:15.273Z,3472
2016-06-13T10:50:15.511Z,3116
2016-06-13T10:51:16.435Z,2772
2016-06-13T10:52:18.235Z,2388
2016-06-13T10:53:15.301Z,2304
2016-06-13T10:54:29.648Z,2692
2016-06-13T10:55:15.323Z,2744
2016-06-13T10:56:15.155Z,2824
2016-06-13T10:57:15.142Z,2496
2016-06-13T10:58:16.145Z,2360
2016-06-13T10:59:14.976Z,1880
2016-06-13T11:00:15.792Z,1616
2016-06-13T11:01:15.341Z,996
2016-06-13T11:02:15.454Z,736
2016-06-13T11:03:15.113Z,556
2016-06-13T11:04:14.975Z,408
2016-06-13T11:05:14.994Z,372
2016-06-13T11:06:15.326Z,684
2016-06-13T11:07:14.939Z,1344
2016-06-13T11:08:14.988Z,1788
2016-06-13T11:09:14.898Z,1976
2016-06-13T11:10:14.916Z,2192
2016-06-13T11:11:14.872Z,2356
2016-06-13T11:12:15.266Z,2448
2016-06-13T11:13:16.503Z,2400
2016-06-13T11:14:14.835Z,2452
2016-06-13T11:15:14.791Z,2512
2016-06-13T11:16:14.872Z,2356
2016-06-13T11:17:14.797Z,2344
2016-06-13T11:18:15.518Z,2084
2016-06-13T11:19:15.303Z,1588
2016-06-13T11:20:14.760Z,1720
2016-06-13T11:21:14.716Z,1728
2016-06-13T11:22:15.125Z,1880
2016-06-13T11:23:14.721Z,1900
2016-06-13T11:24:15.225Z,1924
2016-06-13T11:25:14.759Z,1852
2016-06-13T11:26:14.762Z,1856
2016-06-13T11:27:15.125Z,1824
2016-06-13T11:28:14.674Z,2032
2016-06-13T11:29:15.459Z,2168
2016-06-13T11:30:22.180Z,2296
2016-06-13T11:31:14.793Z,2376
2016-06-13T11:32:14.733Z,2420
2016-06-13T11:33:14.236Z,2436
2016-06-13T11:34:14.787Z,2396
2016-06-13T11:35:14.650Z,2656
2016-06-13T11:36:14.965Z,2688
2016-06-13T11:37:15.031Z,2672
2016-06-13T11:38:14.987Z,2580
2016-06-13T11:39:14.568Z,2688
2016-06-13T11:40:14.430Z,2788
2016-06-13T11:41:14.683Z,2752
2016-06-13T11:42:15.858Z,2700
2016-06-13T11:43:15.595Z,2776
2016-06-13T11:44:14.303Z,2812
2016-06-13T11:45:14.352Z,2864
2016-06-13T11:46:14.511Z,2948
2016-06-13T11:47:14.295Z,2984
2016-06-13T11:48:14.501Z,3028
2016-06-13T11:49:13.692Z,3020
2016-06-13T11:50:14.335Z,3036
2016-06-13T11:51:14.527Z,3032
2016-06-13T11:52:14.170Z,2956
2016-06-13T11:53:14.236Z,2720
2016-06-13T11:54:14.192Z,2536
2016-06-13T11:55:13.664Z,2460
2016-06-13T11:56:14.448Z,2360
2016-06-13T11:57:13.952Z,2328
2016-06-13T11:58:14.376Z,2288
2016-06-13T11:59:14.363Z,2228
2016-06-13T12:00:13.913Z,2164
2016-06-13T12:01:13.855Z,2228
2016-06-13T12:02:13.873Z,2036
2016-06-13T12:03:13.797Z,1924
2016-06-13T12:04:13.785Z,1924
2016-06-13T12:05:13.834Z,1848
2016-06-13T12:06:14.165Z,1740
2016-06-13T12:07:13.779Z,1540
2016-06-13T12:08:13.704Z,1320
2016-06-13T12:09:13.722Z,1108
2016-06-13T12:10:13.694Z,1028
2016-06-13T12:11:13.635Z,948
2016-06-13T12:12:14.309Z,936
2016-06-13T12:13:15.312Z,912
2016-06-13T12:14:13.878Z,932
2016-06-13T12:15:13.757Z,1148
2016-06-13T12:16:13.650Z,1288
2016-06-13T12:17:13.574Z,1268
2016-06-13T12:18:13.891Z,1332
2016-06-13T12:19:13.519Z,1416
2016-06-13T12:20:13.569Z,1428
2016-06-13T12:21:13.509Z,1696
2016-06-13T12:22:13.528Z,1776
2016-06-13T12:23:13.422Z,1768
2016-06-13T12:24:13.393Z,1960
2016-06-13T12:25:13.382Z,2424
2016-06-13T12:26:13.368Z,2516
2016-06-13T12:27:13.355Z,2892
2016-06-13T12:28:13.797Z,4076
2016-06-13T12:29:13.425Z,5124
2016-06-13T12:30:13.740Z,4212
2016-06-13T12:31:13.274Z,3136
2016-06-13T12:32:13.293Z,4732
2016-06-13T12:33:13.265Z,4772
2016-06-13T12:34:13.449Z,3720
2016-06-13T12:35:13.212Z,2660
2016-06-13T12:36:13.724Z,2132
2016-06-13T12:37:13.377Z,1952
2016-06-13T12:38:13.369Z,2708
2016-06-13T12:39:13.387Z,3572
2016-06-13T12:40:13.405Z,3308
2016-06-13T12:41:13.407Z,2384
2016-06-13T12:42:13.675Z,1492
2016-06-13T12:43:15.014Z,1104
2016-06-13T12:44:13.959Z,1156
2016-06-13T12:45:13.342Z,1256
2016-06-13T12:46:13.350Z,1192
2016-06-13T12:47:13.327Z,1116
2016-06-13T12:48:13.364Z,1084
2016-06-13T12:49:13.650Z,988
2016-06-13T12:50:13.405Z,1080
2016-06-13T12:51:13.207Z,1160
2016-06-13T12:52:13.243Z,1288
2016-06-13T12:53:13.247Z,1456
2016-06-13T12:54:13.111Z,1628
2016-06-13T12:55:13.193Z,1740
2016-06-13T12:56:13.165Z,1924
2016-06-13T12:57:13.356Z,2124
2016-06-13T12:58:13.329Z,2348
2016-06-13T12:59:13.176Z,2436
2016-06-13T13:00:13.383Z,2316
2016-06-13T13:01:13.136Z,2088
2016-06-13T13:02:13.124Z,1748
2016-06-13T13:03:13.048Z,1548
2016-06-13T13:04:13.083Z,1396
2016-06-13T13:05:13.149Z,1336
2016-06-13T13:06:13.433Z,1308
2016-06-13T13:07:13.092Z,1364
2016-06-13T13:08:13.128Z,1468
2016-06-13T13:09:12.911Z,1596
2016-06-13T14:13:06.589Z,696
2016-06-13T14:13:38.577Z,636
2016-06-13T14:14:38.908Z,568
2016-06-13T14:15:38.567Z,516
2016-06-13T14:16:38.617Z,468
2016-06-13T14:17:38.573Z,476
2016-06-13T14:18:38.858Z,500
2016-06-13T14:19:38.486Z,560
2016-06-13T14:20:38.504Z,576
2016-06-13T14:21:38.460Z,632
2016-06-13T14:22:38.604Z,684
2016-06-13T14:23:38.529Z,728
2016-06-13T14:24:38.782Z,820
2016-06-13T14:25:38.520Z,976
2016-06-13T14:26:38.210Z,1120
2016-06-13T14:27:38.385Z,1228
2016-06-13T14:28:38.358Z,1336
2016-06-13T14:29:38.579Z,1468
2016-06-13T14:30:39.019Z,1612
2016-06-13T14:31:38.289Z,1896
2016-06-13T14:32:38.292Z,2296
2016-06-13T14:33:38.372Z,3036
2016-06-13T14:34:38.220Z,3960
2016-06-13T14:35:38.222Z,4736
2016-06-13T14:36:38.569Z,6328
2016-06-13T14:37:38.166Z,6400
2016-06-13T14:38:38.154Z,6144
2016-06-13T14:39:38.172Z,6404
2016-06-13T14:40:38.316Z,12588
2016-06-13T14:41:38.179Z,7084
2016-06-13T14:42:38.479Z,5868
2016-06-13T14:43:38.075Z,5768
2016-06-13T14:44:38.485Z,22688
2016-06-13T14:45:38.050Z,37472
2016-06-13T14:46:38.162Z,46240
2016-06-13T14:47:37.838Z,36448
2016-06-13T14:48:38.310Z,28896
2016-06-13T14:49:38.141Z,31904
2016-06-13T14:50:38.019Z,3176
2016-06-13T14:51:37.990Z,1584
2016-06-13T14:52:37.900Z,1328
2016-06-13T14:53:51.778Z,1352
2016-06-13T14:54:38.656Z,1080